Bookmark and Share
Track history (hours):
 

Saxaren

Last reported at 2014-Apr-24 01:34 UTC. Time now 2014-Apr-24 02:22 UTC.
Position N 59°20' E 018°05'.

Length 38 m; draft 1.8 m.

Type: Passenger vessel. MMSI: 265512110.

NotesDate/timePositionNaut miles runAvg speedWind from/ knotsBaromVisibWave heightAir tempDewpointWater temp
2014-Apr-24 01:34N 59°20' E 018°05'0 0.0
2014-Apr-24 00:34N 59°20' E 018°05'0 0.0
2014-Apr-23 23:33N 59°20' E 018°05'0 0.0
2014-Apr-23 22:33N 59°20' E 018°05'0 0.0
2014-Apr-23 21:34N 59°20' E 018°05'0 0.0
2014-Apr-23 20:33N 59°20' E 018°05'0 0.0
2014-Apr-23 19:33N 59°20' E 018°05'0 0.0
2014-Apr-23 18:33N 59°20' E 018°05'0 0.0
2014-Apr-23 17:33N 59°20' E 018°05'0 0.0
2014-Apr-23 16:34N 59°20' E 018°05'0 0.0
2014-Apr-23 15:34N 59°20' E 018°05'0 0.0
2014-Apr-23 14:34N 59°20' E 018°05'0 0.0
2014-Apr-23 13:33N 59°20' E 018°05'0 0.0
2014-Apr-23 12:34N 59°20' E 018°05'0 0.0
2014-Apr-23 11:33N 59°20' E 018°05'0 0.0
2014-Apr-23 10:33N 59°20' E 018°05'0 0.0
2014-Apr-23 09:33N 59°20' E 018°05'0 0.0
2014-Apr-23 08:34N 59°20' E 018°05'0 0.0
2014-Apr-23 07:33N 59°20' E 018°05'0 0.0
2014-Apr-23 06:34N 59°20' E 018°05'0 0.0
2014-Apr-23 05:34N 59°20' E 018°05'0 0.0
2014-Apr-23 04:33N 59°20' E 018°05'0 0.0
2014-Apr-23 03:34N 59°20' E 018°05'0 0.0
2014-Apr-23 02:34N 59°20' E 018°05'0 0.0
2014-Apr-23 01:33N 59°20' E 018°05'0 0.0
2014-Apr-23 00:33N 59°20' E 018°05'0 0.0
2014-Apr-22 23:33N 59°20' E 018°05'0 0.0
2014-Apr-22 22:33N 59°20' E 018°05'0 0.0
2014-Apr-22 21:33N 59°20' E 018°05'0 0.0
2014-Apr-22 20:33N 59°20' E 018°05'0 0.0
2014-Apr-22 19:33N 59°20' E 018°05'0 0.0
2014-Apr-22 18:33N 59°20' E 018°05'0 0.0
2014-Apr-22 17:33N 59°20' E 018°05'0 0.0
2014-Apr-22 16:33N 59°20' E 018°05'0 0.0
2014-Apr-22 15:33N 59°20' E 018°05'0 0.0
2014-Apr-22 14:33N 59°20' E 018°05'0 0.0
2014-Apr-22 13:33N 59°20' E 018°05'0 0.0
2014-Apr-22 12:33N 59°20' E 018°05'0 0.0
2014-Apr-22 11:33N 59°20' E 018°05'0 0.0
2014-Apr-22 10:33N 59°20' E 018°05'0 0.0
2014-Apr-22 09:33N 59°20' E 018°05'0 0.0
2014-Apr-22 08:33N 59°20' E 018°05'0 0.0
2014-Apr-22 07:33N 59°20' E 018°05'0 0.0
2014-Apr-22 06:33N 59°20' E 018°05'0 0.0
2014-Apr-22 05:33N 59°20' E 018°05'0 0.0
2014-Apr-22 04:33N 59°20' E 018°05'0 0.0
2014-Apr-22 03:33N 59°20' E 018°05'0 0.0
2014-Apr-22 02:33N 59°20' E 018°05'0 0.0
2014-Apr-22 01:33N 59°20' E 018°05'0 0.0
2014-Apr-22 00:33N 59°20' E 018°05'0 0.0
2014-Apr-21 23:33N 59°20' E 018°05'0 0.0
2014-Apr-21 22:33N 59°20' E 018°05'0 0.0
2014-Apr-21 21:33N 59°20' E 018°05'0 0.0
2014-Apr-21 20:33N 59°20' E 018°05'0 0.0
2014-Apr-21 19:33N 59°20' E 018°05'1 1.2
2014-Apr-21 18:33N 59°19' E 018°06'5 0.5
2014-Apr-21 09:31N 59°21' E 018°15'5 5.6
2014-Apr-21 08:34N 59°20' E 018°04'0 0.0
2014-Apr-21 07:33N 59°20' E 018°05'0 0.0
2014-Apr-21 06:34N 59°20' E 018°05'0 0.0
2014-Apr-21 05:34N 59°20' E 018°05'0 0.0
2014-Apr-21 04:34N 59°20' E 018°05'0 0.0
2014-Apr-21 03:34N 59°20' E 018°05'0 0.0
2014-Apr-21 02:33N 59°20' E 018°05'0 0.0
2014-Apr-21 01:33N 59°20' E 018°05'0 0.0
2014-Apr-21 00:34N 59°20' E 018°05'0 0.0
2014-Apr-20 23:34N 59°20' E 018°05'0 0.0
2014-Apr-20 22:34N 59°20' E 018°05'0 0.0
2014-Apr-20 21:34N 59°20' E 018°05'0 0.0
2014-Apr-20 20:33N 59°20' E 018°05'0 0.0
2014-Apr-20 19:34N 59°20' E 018°05'0 0.0
2014-Apr-20 18:34N 59°20' E 018°05'7 7.1
2014-Apr-20 17:33N 59°22' E 018°18'5 1.5
2014-Apr-20 14:33N 59°19' E 018°10'2 2.3
2014-Apr-20 13:33N 59°21' E 018°14'0 0.1
2014-Apr-20 09:28N 59°21' E 018°14'5 5.7
2014-Apr-20 08:33N 59°20' E 018°05'0 0.0
2014-Apr-20 07:33N 59°20' E 018°05'0 0.0
2014-Apr-20 06:34N 59°20' E 018°05'0 0.0
2014-Apr-20 05:33N 59°20' E 018°05'0 0.0
2014-Apr-20 04:33N 59°20' E 018°05'0 0.0
2014-Apr-20 03:33N 59°20' E 018°05'0 0.0
2014-Apr-20 02:33N 59°20' E 018°05'0 0.0
2014-Apr-20 01:34N 59°20' E 018°05'0 0.0
2014-Apr-20 00:33N 59°20' E 018°05'0 0.0
2014-Apr-19 23:33N 59°20' E 018°05'0 0.0
2014-Apr-19 22:33N 59°20' E 018°05'0 0.0
2014-Apr-19 21:34N 59°20' E 018°05'0 0.0
2014-Apr-19 20:33N 59°20' E 018°05'0 0.0
2014-Apr-19 19:33N 59°20' E 018°05'7 6.8
2014-Apr-19 18:33N 59°22' E 018°17'2 0.3
2014-Apr-19 12:22N 59°23' E 018°20'810.4
2014-Apr-19 11:33N 59°19' E 018°05'0 0.5
2014-Apr-19 10:34N 59°20' E 018°04'0 0.2
2014-Apr-19 09:33N 59°20' E 018°05'8 0.6
2014-Apr-18 19:19N 59°23' E 018°19'810.7
2014-Apr-18 18:33N 59°19' E 018°05'5 0.6
2014-Apr-18 09:33N 59°21' E 018°14'5 5.2
2014-Apr-18 08:33N 59°20' E 018°05'0 0.0
2014-Apr-18 07:33N 59°20' E 018°05'0 0.0
2014-Apr-18 06:33N 59°20' E 018°05'0 0.0
2014-Apr-18 05:33N 59°20' E 018°05'0 0.0
2014-Apr-18 04:34N 59°20' E 018°05'0 0.0
2014-Apr-18 03:33N 59°20' E 018°05'0 0.0
2014-Apr-18 02:33N 59°20' E 018°05'0 0.0
2014-Apr-18 01:33N 59°20' E 018°05'0 0.0
2014-Apr-18 00:33N 59°20' E 018°05'0 0.0
2014-Apr-17 23:34N 59°20' E 018°05'0 0.0
2014-Apr-17 22:33N 59°20' E 018°05'0 0.0
2014-Apr-17 21:33N 59°20' E 018°05'3 2.9
2014-Apr-17 20:33N 59°19' E 018°10'3 0.6
2014-Apr-17 15:30N 59°21' E 018°14'5 5.5
2014-Apr-17 14:33N 59°20' E 018°04'0 0.0
2014-Apr-17 13:33N 59°20' E 018°04'0 0.0
2014-Apr-17 12:33N 59°20' E 018°05'5 1.3
2014-Apr-17 08:33N 59°21' E 018°14'5 5.1
2014-Apr-17 07:33N 59°20' E 018°05'0 0.0
2014-Apr-17 06:33N 59°20' E 018°05'0 0.0
2014-Apr-17 05:34N 59°20' E 018°05'0 0.0
2014-Apr-17 04:33N 59°20' E 018°05'0 0.0
2014-Apr-17 03:33N 59°20' E 018°05'0 0.0
2014-Apr-17 02:33N 59°20' E 018°05'0 0.0
2014-Apr-17 01:33N 59°20' E 018°05'0 0.0
2014-Apr-17 00:33N 59°20' E 018°05'0 0.0
2014-Apr-16 23:33N 59°20' E 018°05'0 0.0
2014-Apr-16 22:33N 59°20' E 018°05'0 0.0
2014-Apr-16 21:33N 59°20' E 018°05'0 0.0
2014-Apr-16 20:33N 59°20' E 018°05'0 0.0
2014-Apr-16 19:34N 59°20' E 018°05'0 0.0
2014-Apr-16 18:33N 59°20' E 018°05'0 0.0
2014-Apr-16 17:33N 59°20' E 018°05'0 0.0
2014-Apr-16 16:33N 59°20' E 018°05'0 0.0
2014-Apr-16 15:33N 59°20' E 018°05'0 0.0
2014-Apr-16 14:34N 59°20' E 018°05'0 0.0
2014-Apr-16 13:33N 59°20' E 018°05'0 0.0
2014-Apr-16 12:34N 59°20' E 018°05'0 0.0
2014-Apr-16 11:33N 59°20' E 018°05'0 0.0
2014-Apr-16 10:33N 59°20' E 018°05'0 0.0
2014-Apr-16 09:33N 59°20' E 018°05'0 0.0
2014-Apr-16 08:33N 59°20' E 018°05'0 0.0
2014-Apr-16 07:33N 59°20' E 018°05'0 0.0
2014-Apr-16 06:33N 59°20' E 018°05'0 0.0
2014-Apr-16 05:34N 59°20' E 018°05'0 0.0
2014-Apr-16 04:33N 59°20' E 018°05'0 0.0
2014-Apr-16 03:33N 59°20' E 018°05'0 0.0
2014-Apr-16 02:33N 59°20' E 018°05'0 0.0
2014-Apr-16 01:33N 59°20' E 018°05'0 0.0
2014-Apr-16 00:33N 59°20' E 018°05'0 0.0
2014-Apr-15 23:34N 59°20' E 018°05'0 0.0
2014-Apr-15 22:33N 59°20' E 018°05'0 0.0
2014-Apr-15 21:33N 59°20' E 018°05'0 0.0
2014-Apr-15 20:33N 59°20' E 018°05'0 0.0
2014-Apr-15 19:33N 59°20' E 018°05'0 0.0
2014-Apr-15 18:33N 59°20' E 018°05'0 0.0
2014-Apr-15 17:34N 59°20' E 018°05'0 0.0
2014-Apr-15 16:34N 59°20' E 018°05'0 0.0
2014-Apr-15 15:33N 59°20' E 018°05'0 0.0
2014-Apr-15 14:34N 59°20' E 018°05'0 0.0
2014-Apr-15 12:34N 59°20' E 018°05'0 0.0
2014-Apr-15 11:34N 59°20' E 018°05'0 0.0
2014-Apr-15 10:34N 59°20' E 018°05'0 0.0
2014-Apr-15 09:34N 59°20' E 018°05'0 0.0
2014-Apr-15 08:34N 59°20' E 018°05'0 0.0
2014-Apr-15 07:34N 59°20' E 018°05'0 0.0
2014-Apr-15 06:34N 59°20' E 018°05'0 0.0
2014-Apr-15 05:34N 59°20' E 018°05'0 0.0
2014-Apr-15 03:34N 59°20' E 018°05'0 0.0
2014-Apr-15 02:34N 59°20' E 018°05'0 0.0
2014-Apr-15 01:34N 59°20' E 018°05'0 0.0
2014-Apr-15 00:34N 59°20' E 018°05'0 0.0
2014-Apr-14 23:34N 59°20' E 018°05'0 0.0
2014-Apr-14 22:34N 59°20' E 018°05'0 0.0
2014-Apr-14 21:34N 59°20' E 018°05'0 0.0
2014-Apr-14 20:34N 59°20' E 018°05'0 0.0
2014-Apr-14 19:34N 59°20' E 018°05'0 0.0
2014-Apr-14 18:34N 59°20' E 018°05'0 0.0
2014-Apr-14 17:34N 59°20' E 018°05'0 0.0
2014-Apr-14 16:34N 59°20' E 018°05'0 0.0
2014-Apr-14 15:34N 59°20' E 018°05'0 0.0
2014-Apr-14 14:34N 59°20' E 018°05'0 0.0
2014-Apr-14 13:33N 59°20' E 018°05'0 0.0
2014-Apr-14 11:33N 59°20' E 018°05'0 0.0
2014-Apr-14 10:34N 59°20' E 018°05'0 0.0
2014-Apr-14 09:34N 59°20' E 018°05'0 0.0
2014-Apr-14 08:33N 59°20' E 018°05'0 0.0
2014-Apr-14 07:33N 59°20' E 018°05'0 0.0
2014-Apr-14 06:33N 59°20' E 018°05'0 0.0
2014-Apr-14 05:33N 59°20' E 018°05'  

Dump ship's entire track history

sailing weather and tide predictions

Saxaren — SKHW — position and weather